createdAt,value
2023-03-11T00:01:47.007Z,1.30
2023-03-11T00:04:15.065Z,1.20
2023-03-11T00:06:44.388Z,1.33
2023-03-11T00:09:12.388Z,1.20
2023-03-11T00:11:40.621Z,1.10
2023-03-11T00:14:11.210Z,1.10
2023-03-11T00:16:39.184Z,1.03
2023-03-11T00:19:07.213Z,1.10
2023-03-11T00:21:35.258Z,1.20
2023-03-11T00:24:05.052Z,1.50
2023-03-11T00:26:33.066Z,1.53
2023-03-11T00:29:01.353Z,1.13
2023-03-11T00:31:29.461Z,1.30
2023-03-11T00:33:58.009Z,1.20
2023-03-11T00:36:32.217Z,1.40
2023-03-11T00:39:02.000Z,1.00
2023-03-11T00:41:31.312Z,0.97
2023-03-11T00:43:59.216Z,0.80
2023-03-11T00:46:28.537Z,0.90
2023-03-11T00:48:56.836Z,1.00
2023-03-11T00:51:24.942Z,0.87
2023-03-11T00:53:52.869Z,1.00
2023-03-11T00:56:20.757Z,0.90
2023-03-11T00:58:50.104Z,1.10
2023-03-11T01:01:20.935Z,1.10
2023-03-11T01:03:49.047Z,1.20
2023-03-11T01:06:17.237Z,0.97
2023-03-11T01:08:45.222Z,1.00
2023-03-11T01:11:13.260Z,0.93
2023-03-11T01:13:41.250Z,1.23
2023-03-11T01:16:10.775Z,1.40
2023-03-11T01:18:38.870Z,1.63
2023-03-11T01:21:06.951Z,1.17
2023-03-11T01:23:35.070Z,1.30
2023-03-11T01:26:03.031Z,0.80
2023-03-11T01:28:30.963Z,1.10
2023-03-11T01:30:58.928Z,1.00
2023-03-11T01:33:29.156Z,0.90
2023-03-11T01:35:57.658Z,0.83
2023-03-11T01:38:25.634Z,0.83
2023-03-11T01:40:54.187Z,1.10
2023-03-11T01:43:51.685Z,1.00
2023-03-11T01:46:22.073Z,1.10
2023-03-11T01:48:52.643Z,0.97
2023-03-11T01:51:26.752Z,1.20
2023-03-11T01:53:56.780Z,1.07
2023-03-11T01:56:25.568Z,1.10
2023-03-11T01:58:55.090Z,1.10
2023-03-11T02:01:24.861Z,1.17
2023-03-11T02:03:55.292Z,1.33
2023-03-11T02:06:25.506Z,1.50
2023-03-11T02:08:53.931Z,1.40
2023-03-11T02:11:25.660Z,1.20
2023-03-11T02:13:56.139Z,1.10
2023-03-11T02:16:24.528Z,1.50
2023-03-11T02:18:53.933Z,1.23
2023-03-11T02:21:26.348Z,1.10
2023-03-11T02:24:05.784Z,1.10
2023-03-11T02:26:38.544Z,1.20
2023-03-11T02:29:10.536Z,1.33
2023-03-11T02:31:42.488Z,1.10
2023-03-11T02:34:15.687Z,1.00
2023-03-11T02:36:44.457Z,1.33
2023-03-11T02:39:12.349Z,1.17
2023-03-11T02:41:43.247Z,1.00
2023-03-11T02:44:16.590Z,1.20
2023-03-11T02:46:45.417Z,1.30
2023-03-11T02:49:15.071Z,1.40
2023-03-11T02:51:43.108Z,1.10
2023-03-11T02:54:11.004Z,1.30
2023-03-11T02:56:39.070Z,1.60
2023-03-11T02:59:07.184Z,1.47
2023-03-11T03:01:36.524Z,1.30
2023-03-11T03:04:04.785Z,1.50
2023-03-11T03:06:32.776Z,2.20
2023-03-11T03:09:00.770Z,1.33
2023-03-11T03:11:28.999Z,1.00
2023-03-11T03:13:56.934Z,1.27
2023-03-11T03:16:25.023Z,1.07
2023-03-11T03:18:54.396Z,1.07
2023-03-11T03:21:22.362Z,1.33
2023-03-11T03:23:50.272Z,1.50
2023-03-11T03:26:18.293Z,1.20
2023-03-11T03:28:46.229Z,1.20
2023-03-11T03:31:14.123Z,1.27
2023-03-11T03:33:42.086Z,1.10
2023-03-11T03:36:14.518Z,1.20
2023-03-11T03:38:42.687Z,1.03
2023-03-11T03:41:10.910Z,1.27
2023-03-11T03:43:38.885Z,1.10
2023-03-11T03:46:07.234Z,1.33
2023-03-11T03:48:35.977Z,1.50
2023-03-11T03:51:05.561Z,1.20
2023-03-11T03:53:37.219Z,1.00
2023-03-11T03:56:05.914Z,1.20
2023-03-11T03:58:33.892Z,1.30
2023-03-11T04:01:02.329Z,1.83
2023-03-11T04:03:30.530Z,1.30
2023-03-11T04:06:07.788Z,1.40
2023-03-11T04:08:37.375Z,1.20
2023-03-11T04:11:05.681Z,1.30
2023-03-11T04:13:33.981Z,1.33
2023-03-11T04:16:04.367Z,1.20
2023-03-11T04:18:32.342Z,1.13
2023-03-11T04:21:00.263Z,1.30
2023-03-11T04:23:28.172Z,1.23
2023-03-11T04:25:57.730Z,1.20
2023-03-11T04:28:25.812Z,1.33
2023-03-11T04:30:53.876Z,1.20
2023-03-11T04:33:21.994Z,1.40
2023-03-11T04:35:49.927Z,1.27
2023-03-11T04:38:18.088Z,1.53
2023-03-11T04:40:46.030Z,1.30
2023-03-11T04:43:15.428Z,1.30
2023-03-11T04:45:43.716Z,1.33
2023-03-11T04:48:11.756Z,1.37
2023-03-11T04:50:39.701Z,1.30
2023-03-11T04:53:07.616Z,1.83
2023-03-11T04:55:35.641Z,1.40
2023-03-11T04:58:03.611Z,1.30
2023-03-11T05:00:32.878Z,1.30
2023-03-11T05:03:00.980Z,1.20
2023-03-11T05:05:28.997Z,1.67
2023-03-11T05:07:56.900Z,1.37
2023-03-11T05:10:24.799Z,1.50
2023-03-11T05:12:53.363Z,1.50
2023-03-11T05:15:21.427Z,1.87
2023-03-11T05:17:50.671Z,1.83
2023-03-11T05:20:19.486Z,1.60
2023-03-11T05:22:47.497Z,1.43
2023-03-11T05:25:15.404Z,1.70
2023-03-11T05:27:43.448Z,1.80
2023-03-11T05:30:12.266Z,1.40
2023-03-11T05:32:40.276Z,1.30
2023-03-11T05:35:10.492Z,1.30
2023-03-11T05:37:39.285Z,1.43
2023-03-11T05:40:08.894Z,1.50
2023-03-11T05:42:36.857Z,1.30
2023-03-11T05:45:05.373Z,1.30
2023-03-11T05:47:34.117Z,1.60
2023-03-11T05:50:02.068Z,1.53
2023-03-11T05:52:32.959Z,1.70
2023-03-11T05:55:01.038Z,1.30
2023-03-11T05:57:29.230Z,1.10
2023-03-11T05:59:57.175Z,1.40
2023-03-11T06:02:25.363Z,1.40
2023-03-11T06:04:53.580Z,1.63
2023-03-11T06:07:21.723Z,1.43
2023-03-11T06:09:52.399Z,1.40
2023-03-11T06:12:20.339Z,1.40
2023-03-11T06:14:48.506Z,1.20
2023-03-11T06:17:16.475Z,1.30
2023-03-11T06:19:44.698Z,1.33
2023-03-11T06:22:12.594Z,1.50
2023-03-11T06:24:40.541Z,1.40
2023-03-11T06:27:11.167Z,1.40
2023-03-11T06:29:39.217Z,1.10
2023-03-11T06:32:08.165Z,2.00
2023-03-11T06:34:37.492Z,1.40
2023-03-11T06:37:05.603Z,1.30
2023-03-11T06:39:33.626Z,1.57
2023-03-11T06:42:01.586Z,1.50
2023-03-11T06:44:30.893Z,1.40
2023-03-11T06:46:58.911Z,1.40
2023-03-11T06:49:26.803Z,1.53
2023-03-11T06:51:55.200Z,1.23
2023-03-11T06:54:23.424Z,1.20
2023-03-11T06:56:51.745Z,1.43
2023-03-11T06:59:19.700Z,1.23
2023-03-11T07:01:49.073Z,1.30
2023-03-11T07:04:17.079Z,1.20
2023-03-11T07:06:45.151Z,1.13
2023-03-11T07:09:13.557Z,1.87
2023-03-11T07:11:41.489Z,1.30
2023-03-11T07:14:10.255Z,1.60
2023-03-11T07:16:40.678Z,1.20
2023-03-11T07:19:10.915Z,1.03
2023-03-11T07:21:40.375Z,1.20
2023-03-11T07:24:10.121Z,1.40
2023-03-11T07:26:38.865Z,1.10
2023-03-11T07:29:07.562Z,1.40
2023-03-11T07:31:37.436Z,1.40
2023-03-11T07:34:11.237Z,1.20
2023-03-11T07:36:43.125Z,1.40
2023-03-11T07:39:15.201Z,1.57
2023-03-11T07:41:43.568Z,1.30
2023-03-11T07:44:13.735Z,1.27
2023-03-11T07:46:42.151Z,1.30
2023-03-11T07:49:10.381Z,1.40
2023-03-11T07:51:43.664Z,1.30
2023-03-11T07:54:12.773Z,1.27
2023-03-11T07:56:41.034Z,1.20
2023-03-11T07:59:08.994Z,1.40
2023-03-11T08:01:40.603Z,1.30
2023-03-11T08:04:14.232Z,1.47
2023-03-11T08:06:46.910Z,1.17
2023-03-11T08:09:15.056Z,1.40
2023-03-11T08:11:43.984Z,1.13
2023-03-11T08:14:12.193Z,1.20
2023-03-11T08:16:41.791Z,1.20
2023-03-11T08:19:12.438Z,1.43
2023-03-11T08:21:40.688Z,1.10
2023-03-11T08:24:12.652Z,1.27
2023-03-11T08:26:41.231Z,1.40
2023-03-11T08:29:09.523Z,1.37
2023-03-11T08:31:37.553Z,1.33
2023-03-11T08:34:08.413Z,1.70
2023-03-11T08:36:36.789Z,1.30
2023-03-11T08:39:05.334Z,1.33
2023-03-11T08:41:34.989Z,1.20
2023-03-11T08:44:03.257Z,1.13
2023-03-11T08:46:33.903Z,1.10
2023-03-11T08:49:02.330Z,1.40
2023-03-11T08:51:31.682Z,1.53
2023-03-11T08:54:00.789Z,1.20
2023-03-11T08:56:29.018Z,1.30
2023-03-11T08:58:58.615Z,1.50
2023-03-11T09:01:26.647Z,1.50
2023-03-11T09:03:54.547Z,1.40
2023-03-11T09:06:24.409Z,1.50
2023-03-11T09:08:52.744Z,1.60
2023-03-11T09:11:22.422Z,1.80
2023-03-11T09:13:51.020Z,1.40
2023-03-11T09:16:21.749Z,1.43
2023-03-11T09:18:50.229Z,1.20
2023-03-11T09:21:18.450Z,1.57
2023-03-11T09:23:46.509Z,1.30
2023-03-11T09:26:15.314Z,1.63
2023-03-11T09:28:48.708Z,1.50
2023-03-11T09:31:17.231Z,1.47
2023-03-11T09:33:47.677Z,1.83
2023-03-11T09:36:17.756Z,1.50
2023-03-11T09:38:46.249Z,1.90
2023-03-11T09:41:23.747Z,1.60
2023-03-11T09:44:15.732Z,1.70
2023-03-11T09:47:04.618Z,1.47
2023-03-11T09:49:47.214Z,1.97
2023-03-11T09:52:17.367Z,1.67
2023-03-11T09:54:48.887Z,1.57
2023-03-11T09:57:22.846Z,1.50
2023-03-11T09:59:51.513Z,1.50
2023-03-11T10:02:21.480Z,1.57
2023-03-11T10:04:59.549Z,1.47
2023-03-11T10:07:34.823Z,1.60
2023-03-11T10:10:03.786Z,1.30
2023-03-11T10:12:52.212Z,1.60
2023-03-11T10:15:28.385Z,1.50
2023-03-11T10:18:27.877Z,1.40
2023-03-11T10:21:02.720Z,1.37
2023-03-11T10:23:40.212Z,1.60
2023-03-11T10:26:14.751Z,1.60
2023-03-11T10:28:47.747Z,1.70
2023-03-11T10:31:23.219Z,1.50
2023-03-11T10:33:55.802Z,1.83
2023-03-11T10:36:27.954Z,2.00
2023-03-11T10:38:57.192Z,1.50
2023-03-11T10:41:31.129Z,1.70
2023-03-11T10:44:06.953Z,1.40
2023-03-11T10:46:34.918Z,1.57
2023-03-11T10:49:02.847Z,1.70
2023-03-11T10:51:36.280Z,1.77
2023-03-11T10:54:05.322Z,1.73
2023-03-11T10:56:36.462Z,1.50
2023-03-11T10:59:06.529Z,1.93
2023-03-11T11:01:35.189Z,1.43
2023-03-11T11:04:04.013Z,1.57
2023-03-11T11:06:35.363Z,1.70
2023-03-11T11:09:14.314Z,1.70
2023-03-11T11:11:42.863Z,2.03
2023-03-11T11:14:11.373Z,1.77
2023-03-11T11:16:39.892Z,1.80
2023-03-11T11:19:11.542Z,1.80
2023-03-11T11:21:43.441Z,1.40
2023-03-11T11:24:25.532Z,1.40
2023-03-11T11:27:07.805Z,1.70
2023-03-11T11:29:35.973Z,1.50
2023-03-11T11:32:20.926Z,1.73
2023-03-11T11:35:03.133Z,2.20
2023-03-11T11:37:34.807Z,2.13
2023-03-11T11:40:11.474Z,1.70
2023-03-11T11:42:43.711Z,2.10
2023-03-11T11:45:17.212Z,2.10
2023-03-11T11:47:49.734Z,1.40
2023-03-11T11:50:24.396Z,1.70
2023-03-11T11:52:58.441Z,1.60
2023-03-11T11:55:28.433Z,1.67
2023-03-11T11:57:56.369Z,3.07
2023-03-11T12:00:30.897Z,1.60
2023-03-11T12:03:17.367Z,1.20
2023-03-11T12:05:49.705Z,1.80
2023-03-11T12:08:25.899Z,1.70
2023-03-11T12:10:58.508Z,1.43
2023-03-11T12:13:36.564Z,1.20
2023-03-11T12:16:12.506Z,1.67
2023-03-11T12:18:43.908Z,1.63
2023-03-11T12:21:23.878Z,1.50
2023-03-11T12:24:08.154Z,1.00
2023-03-11T12:26:39.782Z,1.50
2023-03-11T12:29:18.418Z,1.20
2023-03-11T12:31:47.654Z,1.07
2023-03-11T12:34:17.555Z,1.57
2023-03-11T12:36:48.130Z,1.43
2023-03-11T12:39:25.813Z,1.27
2023-03-11T12:42:16.619Z,1.60
2023-03-11T12:44:45.920Z,1.30
2023-03-11T12:47:33.975Z,1.40
2023-03-11T12:50:41.353Z,1.50
2023-03-11T12:53:18.079Z,7.00
2023-03-11T12:56:05.213Z,1.40
2023-03-11T12:58:56.243Z,1.20
2023-03-11T13:01:48.933Z,1.30
2023-03-11T13:04:41.455Z,1.13
2023-03-11T13:07:38.540Z,1.37
2023-03-11T13:10:18.551Z,1.30
2023-03-11T13:12:49.936Z,1.20
2023-03-11T13:15:31.935Z,1.63
2023-03-11T13:18:02.073Z,1.60
2023-03-11T13:20:51.503Z,1.80
2023-03-11T13:23:37.380Z,1.70
2023-03-11T13:26:23.085Z,1.40
2023-03-11T13:29:31.456Z,1.27
2023-03-11T13:32:13.199Z,1.47
2023-03-11T13:34:49.527Z,1.50
2023-03-11T13:37:31.275Z,1.33
2023-03-11T13:40:14.270Z,1.37
2023-03-11T13:42:46.376Z,1.30
2023-03-11T13:45:26.598Z,0.93
2023-03-11T13:47:57.844Z,1.40
2023-03-11T13:50:29.171Z,1.40
2023-03-11T13:52:59.695Z,1.50
2023-03-11T13:55:33.389Z,1.20
2023-03-11T13:58:01.534Z,1.40
2023-03-11T14:00:33.930Z,1.20
2023-03-11T14:03:04.768Z,1.10
2023-03-11T14:05:34.386Z,1.53
2023-03-11T14:08:19.135Z,1.50
2023-03-11T14:10:53.935Z,1.70
2023-03-11T14:13:22.858Z,1.40
2023-03-11T14:15:58.967Z,1.40
2023-03-11T14:18:30.411Z,1.37
2023-03-11T14:20:59.122Z,1.30
2023-03-11T14:23:30.745Z,1.00
2023-03-11T14:26:05.359Z,1.10
2023-03-11T14:28:37.080Z,0.93
2023-03-11T14:31:06.831Z,1.10
2023-03-11T14:33:35.029Z,1.37
2023-03-11T14:36:06.981Z,1.00
2023-03-11T14:38:34.981Z,1.20
2023-03-11T14:41:06.200Z,0.90
2023-03-11T14:43:40.561Z,1.50
2023-03-11T14:46:12.598Z,1.00
2023-03-11T14:48:43.738Z,1.07
2023-03-11T14:51:18.003Z,1.20
2023-03-11T14:53:49.472Z,1.33
2023-03-11T14:56:21.690Z,1.10
2023-03-11T14:59:06.589Z,1.30
2023-03-11T15:01:41.458Z,1.67
2023-03-11T15:04:13.230Z,1.23
2023-03-11T15:06:44.311Z,1.37
2023-03-11T15:09:14.319Z,1.20
2023-03-11T15:11:46.972Z,1.60
2023-03-11T15:14:22.694Z,1.50
2023-03-11T15:16:53.241Z,1.47
2023-03-11T15:19:34.437Z,1.70
2023-03-11T15:22:23.927Z,1.30
2023-03-11T15:24:54.126Z,1.43
2023-03-11T15:27:30.168Z,1.53
2023-03-11T15:29:59.582Z,1.40
2023-03-11T15:32:41.236Z,1.90
2023-03-11T15:35:19.233Z,1.53
2023-03-11T15:37:49.072Z,1.43
2023-03-11T15:40:42.381Z,5.13
2023-03-11T15:43:27.666Z,3.00
2023-03-11T15:45:57.833Z,3.90
2023-03-11T15:48:28.955Z,2.17
2023-03-11T15:50:58.663Z,1.43
2023-03-11T15:53:28.424Z,1.50
2023-03-11T15:56:06.560Z,1.63
2023-03-11T15:58:35.353Z,2.03
2023-03-11T16:01:04.107Z,2.00
2023-03-11T16:03:33.442Z,1.77
2023-03-11T16:06:01.436Z,4.73
2023-03-11T16:08:29.312Z,2.67
2023-03-11T16:10:58.083Z,5.30
2023-03-11T16:13:26.199Z,3.70
2023-03-11T16:15:54.387Z,2.90
2023-03-11T16:18:22.326Z,1.77
2023-03-11T16:20:54.237Z,1.50
2023-03-11T16:23:25.548Z,1.40
2023-03-11T16:25:56.893Z,1.70
2023-03-11T16:28:24.923Z,1.40
2023-03-11T16:30:53.130Z,1.80
2023-03-11T16:33:21.152Z,1.60
2023-03-11T16:35:49.536Z,2.03
2023-03-11T16:38:19.529Z,2.00
2023-03-11T16:40:57.712Z,2.60
2023-03-11T16:43:26.301Z,1.60
2023-03-11T16:45:54.905Z,1.73
2023-03-11T16:48:23.460Z,1.63
2023-03-11T16:50:51.632Z,1.67
2023-03-11T16:53:21.880Z,1.50
2023-03-11T16:55:50.123Z,1.67
2023-03-11T16:58:18.273Z,1.80
2023-03-11T17:00:46.882Z,1.83
2023-03-11T17:03:17.179Z,1.50
2023-03-11T17:05:45.441Z,1.93
2023-03-11T17:08:13.992Z,1.90
2023-03-11T17:10:44.988Z,1.80
2023-03-11T17:13:15.176Z,1.80
2023-03-11T17:15:44.529Z,3.00
2023-03-11T17:18:13.434Z,2.20
2023-03-11T17:20:43.383Z,1.40
2023-03-11T17:23:11.588Z,2.13
2023-03-11T17:25:41.523Z,1.80
2023-03-11T17:28:11.446Z,2.40
2023-03-11T17:30:43.334Z,1.97
2023-03-11T17:33:11.923Z,1.40
2023-03-11T17:35:40.755Z,1.90
2023-03-11T17:38:09.079Z,1.87
2023-03-11T17:40:38.073Z,1.50
2023-03-11T17:43:05.973Z,2.00
2023-03-11T17:45:35.237Z,2.00
2023-03-11T17:48:03.239Z,1.80
2023-03-11T17:50:31.299Z,1.57
2023-03-11T17:52:59.212Z,1.40
2023-03-11T17:55:27.418Z,2.07
2023-03-11T17:57:55.470Z,1.60
2023-03-11T18:00:23.691Z,1.80
2023-03-11T18:02:53.077Z,1.30
2023-03-11T18:05:21.567Z,1.57
2023-03-11T18:07:49.492Z,1.40
2023-03-11T18:10:18.287Z,1.63
2023-03-11T18:12:47.654Z,2.00
2023-03-11T18:15:18.978Z,1.27
2023-03-11T18:17:47.502Z,1.60
2023-03-11T18:20:18.167Z,1.80
2023-03-11T18:22:46.856Z,1.50
2023-03-11T18:25:15.396Z,1.60
2023-03-11T18:27:43.421Z,1.80
2023-03-11T18:30:13.040Z,1.57
2023-03-11T18:32:40.982Z,1.77
2023-03-11T18:35:09.841Z,1.73
2023-03-11T18:37:39.111Z,1.70
2023-03-11T18:40:08.683Z,2.10
2023-03-11T18:42:36.816Z,2.50
2023-03-11T18:45:05.673Z,1.87
2023-03-11T18:47:35.334Z,2.17
2023-03-11T18:50:03.409Z,1.60
2023-03-11T18:52:31.632Z,1.60
2023-03-11T18:55:00.889Z,2.60
2023-03-11T18:57:28.965Z,1.70
2023-03-11T18:59:57.157Z,2.03
2023-03-11T19:02:26.045Z,1.63
2023-03-11T19:04:54.048Z,1.63
2023-03-11T19:07:22.593Z,1.97
2023-03-11T19:09:50.831Z,2.10
2023-03-11T19:12:20.116Z,2.10
2023-03-11T19:14:48.133Z,2.00
2023-03-11T19:17:18.202Z,2.00
2023-03-11T19:19:46.751Z,2.10
2023-03-11T19:22:14.737Z,2.30
2023-03-11T19:24:42.821Z,1.90
2023-03-11T19:27:10.801Z,2.50
2023-03-11T19:29:40.369Z,2.70
2023-03-11T19:32:08.395Z,2.17
2023-03-11T19:34:36.520Z,2.33
2023-03-11T19:37:04.472Z,3.10
2023-03-11T19:39:33.825Z,2.53
2023-03-11T19:42:01.921Z,3.07
2023-03-11T19:44:29.831Z,2.50
2023-03-11T19:46:59.117Z,2.80
2023-03-11T19:49:27.574Z,3.20
2023-03-11T19:51:55.990Z,2.73
2023-03-11T19:54:24.111Z,3.03
2023-03-11T19:56:52.012Z,2.60
2023-03-11T19:59:20.034Z,3.67
2023-03-11T20:01:48.114Z,2.70
2023-03-11T20:04:17.571Z,2.93
2023-03-11T20:06:46.141Z,2.63
2023-03-11T20:09:16.005Z,2.70
2023-03-11T20:11:45.559Z,3.03
2023-03-11T20:14:14.364Z,3.03
2023-03-11T20:16:42.614Z,2.43
2023-03-11T20:19:10.713Z,2.40
2023-03-11T20:21:40.811Z,2.57
2023-03-11T20:24:10.030Z,2.60
2023-03-11T20:26:39.093Z,2.67
2023-03-11T20:29:07.202Z,2.73
2023-03-11T20:31:36.359Z,2.53
2023-03-11T20:34:04.966Z,2.70
2023-03-11T20:36:34.109Z,2.37
2023-03-11T20:39:05.808Z,2.97
2023-03-11T20:41:37.465Z,2.73
2023-03-11T20:44:06.699Z,2.50
2023-03-11T20:46:35.037Z,2.50
2023-03-11T20:49:03.444Z,2.60
2023-03-11T20:51:31.607Z,2.80
2023-03-11T20:53:59.633Z,3.80
2023-03-11T20:56:29.543Z,2.67
2023-03-11T20:58:59.210Z,2.87
2023-03-11T21:01:31.238Z,2.43
2023-03-11T21:04:01.678Z,2.90
2023-03-11T21:06:32.042Z,1.87
2023-03-11T21:09:02.898Z,2.60
2023-03-11T21:11:32.266Z,2.90
2023-03-11T21:14:00.440Z,2.50
2023-03-11T21:16:28.739Z,2.70
2023-03-11T21:18:57.138Z,2.73
2023-03-11T21:21:25.162Z,2.90
2023-03-11T21:23:53.156Z,3.30
2023-03-11T21:26:21.079Z,3.80
2023-03-11T21:28:50.475Z,3.83
2023-03-11T21:31:20.686Z,3.93
2023-03-11T21:33:49.208Z,4.03
2023-03-11T21:36:17.996Z,4.30
2023-03-11T21:38:46.073Z,4.40
2023-03-11T21:41:16.128Z,3.80
2023-03-11T21:43:45.259Z,3.10
2023-03-11T21:46:16.692Z,3.30
2023-03-11T21:48:44.912Z,2.30
2023-03-11T21:51:13.318Z,3.03
2023-03-11T21:53:41.350Z,4.37
2023-03-11T21:56:09.955Z,3.03
2023-03-11T21:58:38.081Z,2.80
2023-03-11T22:01:06.871Z,2.90
2023-03-11T22:03:37.450Z,3.23
2023-03-11T22:06:08.097Z,2.50
2023-03-11T22:08:36.991Z,3.07
2023-03-11T22:11:09.260Z,2.90
2023-03-11T22:13:37.968Z,3.00
2023-03-11T22:16:07.899Z,2.70
2023-03-11T22:18:37.492Z,3.57
2023-03-11T22:21:08.166Z,3.60
2023-03-11T22:23:37.238Z,3.43
2023-03-11T22:26:05.448Z,4.77
2023-03-11T22:28:33.383Z,4.57
2023-03-11T22:31:01.341Z,3.50
2023-03-11T22:33:29.304Z,3.50
2023-03-11T22:35:59.322Z,2.73
2023-03-11T22:38:27.385Z,3.10
2023-03-11T22:40:55.451Z,3.13
2023-03-11T22:43:23.611Z,3.07
2023-03-11T22:45:51.528Z,3.00
2023-03-11T22:48:19.418Z,2.70
2023-03-11T22:50:47.404Z,4.80
2023-03-11T22:53:17.302Z,3.20
2023-03-11T22:55:45.785Z,2.90
2023-03-11T22:58:13.873Z,3.07
2023-03-11T23:00:44.019Z,3.10
2023-03-11T23:03:12.527Z,3.27
2023-03-11T23:05:42.172Z,3.17
2023-03-11T23:08:11.969Z,3.10
2023-03-11T23:10:42.709Z,3.10
2023-03-11T23:13:10.914Z,3.20
2023-03-11T23:15:41.323Z,3.23
2023-03-11T23:18:09.379Z,3.30
2023-03-11T23:20:38.959Z,2.77
2023-03-11T23:23:07.870Z,3.27
2023-03-11T23:25:36.338Z,3.50
2023-03-11T23:28:06.684Z,3.10
2023-03-11T23:30:34.761Z,3.07
2023-03-11T23:33:03.700Z,3.47
2023-03-11T23:35:32.185Z,3.20
2023-03-11T23:38:00.617Z,3.90
2023-03-11T23:40:28.693Z,3.40
2023-03-11T23:42:56.625Z,3.10
2023-03-11T23:45:25.898Z,3.20
2023-03-11T23:47:53.818Z,3.23
2023-03-11T23:50:21.769Z,3.00
2023-03-11T23:52:49.653Z,3.07
2023-03-11T23:55:17.721Z,3.50
2023-03-11T23:57:45.660Z,3.33
